createdAt,value
2022-10-22T00:00:16.486Z,100777.81
2022-10-22T00:02:45.674Z,100783.22
2022-10-22T00:05:13.412Z,100789.41
2022-10-22T00:07:41.420Z,100793.88
2022-10-22T00:10:09.845Z,100786.63
2022-10-22T00:12:37.655Z,100788.41
2022-10-22T00:15:06.677Z,100790.22
2022-10-22T00:17:34.339Z,100786.59
2022-10-22T00:20:03.931Z,100791.09
2022-10-22T00:22:31.637Z,100800.13
2022-10-22T00:24:59.250Z,100801.09
2022-10-22T00:27:26.902Z,100793.06
2022-10-22T00:29:54.524Z,100800.31
2022-10-22T00:32:22.283Z,100802.94
2022-10-22T00:34:49.939Z,100802.03
2022-10-22T00:37:18.948Z,100803.81
2022-10-22T00:39:46.613Z,100804.72
2022-10-22T00:42:20.527Z,100802.00
2022-10-22T00:45:17.309Z,100798.38
2022-10-22T00:47:50.064Z,100797.53
2022-10-22T00:50:22.763Z,100794.78
2022-10-22T00:52:52.519Z,100786.72
2022-10-22T00:55:21.720Z,100781.38
2022-10-22T00:57:50.041Z,100784.13
2022-10-22T01:00:18.449Z,100775.19
2022-10-22T01:02:46.510Z,100776.97
2022-10-22T01:05:14.681Z,100777.88
2022-10-22T01:07:45.632Z,100783.28
2022-10-22T01:10:25.752Z,100794.97
2022-10-22T01:13:06.696Z,100796.84
2022-10-22T01:15:44.007Z,100792.44
2022-10-22T01:18:19.659Z,100779.06
2022-10-22T01:21:02.432Z,100784.53
2022-10-22T01:24:05.868Z,100776.63
2022-10-22T01:26:47.746Z,100775.84
2022-10-22T01:29:20.251Z,100777.66
2022-10-22T01:31:52.638Z,100775.97
2022-10-22T01:34:20.585Z,100769.78
2022-10-22T01:36:49.409Z,100764.44
2022-10-22T01:39:18.387Z,100769.78
2022-10-22T01:41:46.452Z,100768.78
2022-10-22T01:44:39.259Z,100775.03
2022-10-22T01:47:14.634Z,100772.28
2022-10-22T01:50:03.491Z,100762.44
2022-10-22T01:52:45.873Z,100757.94
2022-10-22T01:55:26.398Z,100762.34
2022-10-22T01:58:04.335Z,100764.13
2022-10-22T02:00:33.604Z,100767.69
2022-10-22T02:03:06.381Z,100774.84
2022-10-22T02:05:40.963Z,100757.84
2022-10-22T02:08:11.772Z,100756.94
2022-10-22T02:10:41.347Z,100756.03
2022-10-22T02:13:13.193Z,100752.47
2022-10-22T02:15:47.480Z,100762.31
2022-10-22T02:18:17.669Z,100760.56
2022-10-22T02:20:45.534Z,100762.34
2022-10-22T02:23:13.499Z,100757.88
2022-10-22T02:25:45.051Z,100759.63
2022-10-22T02:28:17.425Z,100764.13
2022-10-22T02:30:49.515Z,100756.97
2022-10-22T02:33:21.533Z,100766.00
2022-10-22T02:35:52.382Z,100766.88
2022-10-22T02:38:20.738Z,100760.56
2022-10-22T02:40:48.404Z,100765.94
2022-10-22T02:43:16.094Z,100769.56
2022-10-22T02:45:43.939Z,100772.25
2022-10-22T02:48:13.009Z,100759.72
2022-10-22T02:50:40.663Z,100768.59
2022-10-22T02:53:08.310Z,100773.06
2022-10-22T02:55:36.395Z,100776.59
2022-10-22T02:58:04.062Z,100765.78
2022-10-22T03:00:31.929Z,100773.81
2022-10-22T03:02:59.600Z,100779.19
2022-10-22T03:05:28.631Z,100779.19
2022-10-22T03:07:56.251Z,100775.59
2022-10-22T03:10:23.867Z,100773.81
2022-10-22T03:12:51.482Z,100782.75
2022-10-22T03:15:19.176Z,100782.75
2022-10-22T03:17:46.856Z,100782.66
2022-10-22T03:20:14.689Z,100780.78
2022-10-22T03:22:44.667Z,100787.91
2022-10-22T03:25:17.474Z,100777.09
2022-10-22T03:27:45.577Z,100781.50
2022-10-22T03:30:13.784Z,100785.97
2022-10-22T03:32:41.377Z,100785.94
2022-10-22T03:35:09.521Z,100784.94
2022-10-22T03:37:38.025Z,100784.94
2022-10-22T03:40:09.479Z,100791.16
2022-10-22T03:42:37.117Z,100780.34
2022-10-22T03:45:05.464Z,100788.44
2022-10-22T03:47:33.057Z,100800.09
2022-10-22T03:50:00.741Z,100787.63
2022-10-22T03:52:28.405Z,100790.38
2022-10-22T03:54:56.018Z,100791.38
2022-10-22T03:57:25.462Z,100799.44
2022-10-22T03:59:53.179Z,100800.38
2022-10-22T04:02:20.837Z,100803.03
2022-10-22T04:04:48.452Z,100801.25
2022-10-22T04:07:16.155Z,100800.34
2022-10-22T04:09:43.825Z,100804.81
2022-10-22T04:12:11.521Z,100811.16
2022-10-22T04:14:40.541Z,100807.59
2022-10-22T04:17:08.281Z,100814.75
2022-10-22T04:19:35.977Z,100818.31
2022-10-22T04:22:03.604Z,100812.03
2022-10-22T04:24:32.478Z,100812.91
2022-10-22T04:27:00.222Z,100826.34
2022-10-22T04:29:28.018Z,100822.78
2022-10-22T04:31:57.081Z,100830.84
2022-10-22T04:34:27.547Z,100832.72
2022-10-22T04:36:55.202Z,100831.81
2022-10-22T04:39:22.854Z,100832.75
2022-10-22T04:41:50.588Z,100829.22
2022-10-22T04:44:18.394Z,100828.38
2022-10-22T04:46:46.622Z,100825.78
2022-10-22T04:49:15.609Z,100829.41
2022-10-22T04:51:43.336Z,100830.38
2022-10-22T04:54:10.997Z,100831.34
2022-10-22T04:56:38.711Z,100837.72
2022-10-22T04:59:09.096Z,100843.16
2022-10-22T05:01:42.596Z,100837.88
2022-10-22T05:04:13.532Z,100837.00
2022-10-22T05:06:42.672Z,100836.19
2022-10-22T05:09:14.862Z,100841.63
2022-10-22T05:11:45.535Z,100841.72
2022-10-22T05:14:13.579Z,100845.34
2022-10-22T05:16:41.296Z,100840.88
2022-10-22T05:19:09.389Z,100850.78
2022-10-22T05:21:38.687Z,100850.84
2022-10-22T05:24:08.648Z,100848.16
2022-10-22T05:26:36.271Z,100857.22
2022-10-22T05:29:03.972Z,100853.63
2022-10-22T05:31:31.669Z,100853.66
2022-10-22T05:33:59.434Z,100856.41
2022-10-22T05:36:27.162Z,100857.34
2022-10-22T05:38:55.261Z,100858.25
2022-10-22T05:41:25.650Z,100860.94
2022-10-22T05:43:55.928Z,100860.97
2022-10-22T05:46:25.370Z,100865.44
2022-10-22T05:48:54.289Z,100867.25
2022-10-22T05:51:22.515Z,100871.75
2022-10-22T05:53:54.307Z,100875.41
2022-10-22T05:56:23.787Z,100867.38
2022-10-22T05:58:51.996Z,100875.44
2022-10-22T06:01:22.016Z,100878.00
2022-10-22T06:03:50.635Z,100883.31
2022-10-22T06:06:21.773Z,100885.06
2022-10-22T06:08:50.760Z,100879.53
2022-10-22T06:11:20.396Z,100881.88
2022-10-22T06:13:50.759Z,100880.84
2022-10-22T06:16:18.956Z,100894.25
2022-10-22T06:18:46.708Z,100893.28
2022-10-22T06:21:16.771Z,100894.88
2022-10-22T06:23:44.927Z,100901.00
2022-10-22T06:26:13.075Z,100900.97
2022-10-22T06:28:40.760Z,100905.50
2022-10-22T06:31:11.026Z,100910.88
2022-10-22T06:33:42.377Z,100920.63
2022-10-22T06:36:12.436Z,100921.47
2022-10-22T06:38:40.601Z,100925.91
2022-10-22T06:41:10.075Z,100926.84
2022-10-22T06:43:37.770Z,100931.22
2022-10-22T06:46:09.596Z,100937.31
2022-10-22T06:48:40.157Z,100933.59
2022-10-22T06:51:11.170Z,100940.66
2022-10-22T06:53:40.235Z,100936.03
2022-10-22T06:56:08.805Z,100960.03
2022-10-22T06:58:36.539Z,100957.13
2022-10-22T07:01:04.668Z,100959.59
2022-10-22T07:03:32.386Z,100960.25
2022-10-22T07:06:02.828Z,100962.72
2022-10-22T07:08:30.956Z,100962.56
2022-10-22T07:11:07.034Z,100965.97
2022-10-22T07:13:34.710Z,100969.44
2022-10-22T07:16:02.675Z,100970.19
2022-10-22T07:18:31.008Z,100974.47
2022-10-22T07:21:02.131Z,100986.03
2022-10-22T07:23:31.389Z,100991.28
2022-10-22T07:25:59.255Z,100991.25
2022-10-22T07:28:27.964Z,100991.19
2022-10-22T07:30:55.745Z,101012.75
2022-10-22T07:33:23.394Z,101008.28
2022-10-22T07:35:51.062Z,101009.16
2022-10-22T07:38:18.768Z,101005.50
2022-10-22T07:40:47.874Z,101018.97
2022-10-22T07:43:15.565Z,101018.88
2022-10-22T07:45:43.322Z,101021.47
2022-10-22T07:48:10.997Z,101023.25
2022-10-22T07:50:39.085Z,101020.50
2022-10-22T07:53:06.823Z,101027.81
2022-10-22T07:55:35.148Z,101026.00
2022-10-22T07:58:04.306Z,101021.63
2022-10-22T08:00:31.999Z,101028.94
2022-10-22T08:02:59.747Z,101028.94
2022-10-22T08:05:27.453Z,101037.00
2022-10-22T08:07:55.163Z,101042.47
2022-10-22T08:10:22.827Z,101032.59
2022-10-22T08:12:50.481Z,101041.44
2022-10-22T08:15:19.821Z,101048.63
2022-10-22T08:17:47.504Z,101053.00
2022-10-22T08:20:15.280Z,101056.47
2022-10-22T08:22:42.977Z,101055.56
2022-10-22T08:25:10.955Z,101072.47
2022-10-22T08:27:39.094Z,101057.84
2022-10-22T08:30:08.410Z,101067.75
2022-10-22T08:32:37.774Z,101074.69
2022-10-22T08:35:06.323Z,101076.38
2022-10-22T08:37:34.046Z,101087.94
2022-10-22T08:40:01.720Z,101089.72
2022-10-22T08:42:44.344Z,101089.53
2022-10-22T08:45:16.347Z,101086.94
2022-10-22T08:48:10.319Z,101088.75
2022-10-22T08:50:41.927Z,101099.34
2022-10-22T08:53:14.904Z,101085.81
2022-10-22T08:55:43.670Z,101093.66
2022-10-22T08:58:20.293Z,101098.16
2022-10-22T09:00:56.537Z,101097.13
2022-10-22T09:03:37.826Z,101099.66
2022-10-22T09:06:11.904Z,101104.09
2022-10-22T09:08:41.405Z,101106.69
2022-10-22T09:11:18.642Z,101111.03
2022-10-22T09:13:48.068Z,101107.22
2022-10-22T09:16:19.293Z,101117.91
2022-10-22T09:19:01.284Z,101118.63
2022-10-22T09:21:39.604Z,101116.69
2022-10-22T09:24:13.186Z,101121.31
2022-10-22T09:26:42.332Z,101119.53
2022-10-22T09:29:18.342Z,101126.53
2022-10-22T09:31:46.238Z,101119.38
2022-10-22T09:34:20.725Z,101118.31
2022-10-22T09:36:48.501Z,101131.91
2022-10-22T09:39:25.134Z,101123.78
2022-10-22T09:41:52.969Z,101122.75
2022-10-22T09:44:21.695Z,101125.28
2022-10-22T09:46:49.434Z,101131.25
2022-10-22T09:49:20.739Z,101130.22
2022-10-22T09:51:54.040Z,101136.38
2022-10-22T09:54:24.530Z,101132.78
2022-10-22T09:56:57.859Z,101132.59
2022-10-22T09:59:29.938Z,101143.31
2022-10-22T10:02:13.363Z,101148.66
2022-10-22T10:04:50.854Z,101153.06
2022-10-22T10:07:21.025Z,101159.31
2022-10-22T10:09:49.156Z,101163.88
2022-10-22T10:12:31.955Z,101158.44
2022-10-22T10:15:08.571Z,101164.59
2022-10-22T10:17:45.658Z,101176.06
2022-10-22T10:20:28.884Z,101176.09
2022-10-22T10:23:02.862Z,101174.16
2022-10-22T10:25:40.995Z,101178.56
2022-10-22T10:28:33.607Z,101177.72
2022-10-22T10:31:14.130Z,101176.78
2022-10-22T10:33:52.182Z,101176.63
2022-10-22T10:36:32.787Z,101179.22
2022-10-22T10:39:05.924Z,101184.44
2022-10-22T10:41:45.913Z,101191.50
2022-10-22T10:44:46.329Z,101193.09
2022-10-22T10:47:26.810Z,101201.03
2022-10-22T10:50:03.513Z,101196.34
2022-10-22T10:52:43.105Z,101194.53
2022-10-22T10:55:19.902Z,101204.25
2022-10-22T10:58:01.965Z,101197.03
2022-10-22T11:00:36.994Z,101196.91
2022-10-22T11:03:35.721Z,101199.44
2022-10-22T11:06:05.379Z,101203.13
2022-10-22T11:08:37.561Z,101198.47
2022-10-22T11:11:09.763Z,101200.19
2022-10-22T11:13:42.086Z,101199.84
2022-10-22T11:16:18.783Z,101200.66
2022-10-22T11:18:52.998Z,101201.41
2022-10-22T11:21:28.173Z,101207.84
2022-10-22T11:24:05.011Z,101207.03
2022-10-22T11:26:42.949Z,101213.38
2022-10-22T11:29:14.005Z,101211.56
2022-10-22T11:31:42.489Z,101215.16
2022-10-22T11:34:33.303Z,101208.81
2022-10-22T11:37:02.557Z,101212.44
2022-10-22T11:39:39.738Z,101208.94
2022-10-22T11:42:11.459Z,101216.09
2022-10-22T11:45:01.534Z,101216.19
2022-10-22T11:47:32.951Z,101222.50
2022-10-22T11:50:17.960Z,101225.28
2022-10-22T11:52:54.882Z,101211.69
2022-10-22T11:55:34.327Z,101205.38
2022-10-22T11:58:03.911Z,101209.03
2022-10-22T12:00:40.798Z,101215.50
2022-10-22T12:03:18.309Z,101219.13
2022-10-22T12:05:46.698Z,101211.31
2022-10-22T12:08:21.945Z,101207.72
2022-10-22T12:11:05.129Z,101216.63
2022-10-22T12:13:54.183Z,101216.59
2022-10-22T12:16:32.273Z,101210.19
2022-10-22T12:19:13.018Z,101208.19
2022-10-22T12:21:43.664Z,101207.91
2022-10-22T12:24:15.406Z,101199.66
2022-10-22T12:26:45.944Z,101193.91
2022-10-22T12:29:15.953Z,101189.09
2022-10-22T12:31:45.803Z,101185.34
2022-10-22T12:34:18.090Z,101187.03
2022-10-22T12:36:47.745Z,101195.00
2022-10-22T12:39:17.547Z,101185.88
2022-10-22T12:41:47.536Z,101190.25
2022-10-22T12:44:17.420Z,101191.06
2022-10-22T12:46:47.340Z,101193.00
2022-10-22T12:49:19.934Z,101194.69
2022-10-22T12:51:48.626Z,101200.00
2022-10-22T12:54:28.063Z,101200.91
2022-10-22T12:56:58.533Z,101194.44
2022-10-22T12:59:29.027Z,101189.69
2022-10-22T13:01:57.491Z,101193.19
2022-10-22T13:04:35.720Z,101189.69
2022-10-22T13:07:19.840Z,101198.84
2022-10-22T13:09:57.917Z,101197.03
2022-10-22T13:12:31.391Z,101207.91
2022-10-22T13:15:19.216Z,101211.50
2022-10-22T13:17:48.716Z,101199.72
2022-10-22T13:20:21.592Z,101213.31
2022-10-22T13:23:00.045Z,101211.53
2022-10-22T13:25:30.481Z,101211.59
2022-10-22T13:28:01.787Z,101212.41
2022-10-22T13:30:32.513Z,101220.59
2022-10-22T13:33:02.555Z,101215.09
2022-10-22T13:35:33.163Z,101215.72
2022-10-22T13:38:01.991Z,101211.09
2022-10-22T13:40:30.033Z,101212.78
2022-10-22T13:43:01.484Z,101207.38
2022-10-22T13:45:29.167Z,101203.03
2022-10-22T13:47:57.044Z,101203.91
2022-10-22T13:50:24.675Z,101217.31
2022-10-22T13:52:54.287Z,101214.38
2022-10-22T13:55:25.679Z,101218.81
2022-10-22T13:57:56.214Z,101217.63
2022-10-22T14:00:25.543Z,101218.41
2022-10-22T14:02:55.714Z,101206.63
2022-10-22T14:05:23.908Z,101207.63
2022-10-22T14:07:52.337Z,101210.41
2022-10-22T14:10:21.901Z,101224.03
2022-10-22T14:12:52.555Z,101224.16
2022-10-22T14:15:23.713Z,101217.16
2022-10-22T14:17:55.104Z,101217.09
2022-10-22T14:20:24.769Z,101227.06
2022-10-22T14:22:52.846Z,101227.22
2022-10-22T14:25:22.559Z,101230.19
2022-10-22T14:27:50.925Z,101230.38
2022-10-22T14:30:20.363Z,101232.34
2022-10-22T14:32:48.810Z,101218.94
2022-10-22T14:35:19.894Z,101218.94
2022-10-22T14:37:47.993Z,101210.81
2022-10-22T14:40:18.056Z,101210.78
2022-10-22T14:42:47.552Z,101216.16
2022-10-22T14:45:18.162Z,101223.38
2022-10-22T14:47:45.908Z,101221.78
2022-10-22T14:50:13.730Z,101228.22
2022-10-22T14:52:43.933Z,101227.72
2022-10-22T14:55:12.683Z,101225.22
2022-10-22T14:57:41.283Z,101221.88
2022-10-22T15:00:11.893Z,101226.50
2022-10-22T15:02:39.905Z,101227.53
2022-10-22T15:05:08.567Z,101234.09
2022-10-22T15:07:36.857Z,101229.66
2022-10-22T15:10:07.827Z,101238.69
2022-10-22T15:12:35.691Z,101238.88
2022-10-22T15:15:03.571Z,101237.13
2022-10-22T15:17:31.253Z,101239.94
2022-10-22T15:20:00.514Z,101248.00
2022-10-22T15:22:28.521Z,101243.59
2022-10-22T15:24:56.174Z,101240.03
2022-10-22T15:27:25.823Z,101236.44
2022-10-22T15:29:53.542Z,101239.97
2022-10-22T15:32:21.283Z,101241.97
2022-10-22T15:34:49.230Z,101248.41
2022-10-22T15:37:16.894Z,101244.91
2022-10-22T15:39:44.572Z,101244.13
2022-10-22T15:42:12.246Z,101245.97
2022-10-22T15:44:41.534Z,101248.75
2022-10-22T15:47:09.606Z,101250.63
2022-10-22T15:49:38.765Z,101254.41
2022-10-22T15:52:07.305Z,101248.13
2022-10-22T15:54:34.924Z,101254.56
2022-10-22T15:57:03.860Z,101260.97
2022-10-22T15:59:31.582Z,101254.81
2022-10-22T16:02:00.627Z,101254.97
2022-10-22T16:04:28.275Z,101252.47
2022-10-22T16:06:57.808Z,101260.69
2022-10-22T16:09:27.508Z,101263.50
2022-10-22T16:11:56.207Z,101264.56
2022-10-22T16:14:24.422Z,101275.47
2022-10-22T16:16:55.370Z,101278.34
2022-10-22T16:19:25.725Z,101267.81
2022-10-22T16:21:55.474Z,101270.63
2022-10-22T16:24:23.495Z,101270.81
2022-10-22T16:26:52.609Z,101269.25
2022-10-22T16:29:20.241Z,101268.63
2022-10-22T16:31:47.999Z,101272.38
2022-10-22T16:34:15.621Z,101271.59
2022-10-22T16:36:45.217Z,101269.00
2022-10-22T16:39:12.935Z,101270.09
2022-10-22T16:41:40.618Z,101264.84
2022-10-22T16:44:08.991Z,101265.00
2022-10-22T16:46:38.439Z,101266.03
2022-10-22T16:49:07.322Z,101265.28
2022-10-22T16:51:35.528Z,101272.56
2022-10-22T16:54:08.157Z,101272.69
2022-10-22T16:56:39.087Z,101277.28
2022-10-22T16:59:07.668Z,101272.03
2022-10-22T17:01:40.335Z,101272.19
2022-10-22T17:04:09.129Z,101287.56
2022-10-22T17:06:36.836Z,101284.91
2022-10-22T17:09:06.087Z,101287.78
2022-10-22T17:11:36.341Z,101295.16
2022-10-22T17:14:05.787Z,101289.03
2022-10-22T17:16:33.534Z,101290.97
2022-10-22T17:19:04.742Z,101296.44
2022-10-22T17:21:32.395Z,101295.66
2022-10-22T17:24:00.198Z,101297.56
2022-10-22T17:26:30.375Z,101293.13
2022-10-22T17:28:58.414Z,101296.91
2022-10-22T17:31:27.910Z,101293.44
2022-10-22T17:33:57.178Z,101298.94
2022-10-22T17:36:26.162Z,101297.19
2022-10-22T17:38:57.074Z,101305.38
2022-10-22T17:41:27.101Z,101307.25
2022-10-22T17:43:56.855Z,101304.53
2022-10-22T17:46:26.447Z,101310.00
2022-10-22T17:48:55.825Z,101309.13
2022-10-22T17:51:25.434Z,101314.56
2022-10-22T17:53:53.288Z,101317.22
2022-10-22T17:56:23.121Z,101319.88
2022-10-22T17:58:51.421Z,101307.31
2022-10-22T18:01:23.953Z,101302.78
2022-10-22T18:03:52.637Z,101313.66
2022-10-22T18:06:20.351Z,101310.13
2022-10-22T18:08:48.130Z,101309.28
2022-10-22T18:11:19.150Z,101311.09
2022-10-22T18:13:50.052Z,101318.22
2022-10-22T18:16:18.729Z,101312.00
2022-10-22T18:18:48.516Z,101313.81
2022-10-22T18:21:17.298Z,101322.84
2022-10-22T18:23:45.724Z,101316.59
2022-10-22T18:26:13.701Z,101316.69
2022-10-22T18:28:41.587Z,101316.78
2022-10-22T18:31:11.344Z,101329.44
2022-10-22T18:33:39.082Z,101322.38
2022-10-22T18:36:10.785Z,101312.63
2022-10-22T18:38:39.367Z,101324.38
2022-10-22T18:41:07.844Z,101316.41
2022-10-22T18:43:36.420Z,101313.78
2022-10-22T18:46:07.371Z,101314.78
2022-10-22T18:48:36.310Z,101315.72
2022-10-22T18:51:06.342Z,101315.81
2022-10-22T18:53:36.013Z,101313.19
2022-10-22T18:56:06.771Z,101306.09
2022-10-22T18:58:38.638Z,101315.16
2022-10-22T19:01:10.418Z,101320.59
2022-10-22T19:03:38.128Z,101324.25
2022-10-22T19:06:06.228Z,101321.59
2022-10-22T19:08:38.363Z,101318.97
2022-10-22T19:11:10.943Z,101323.50
2022-10-22T19:13:38.835Z,101319.97
2022-10-22T19:16:08.170Z,101325.38
2022-10-22T19:18:38.420Z,101325.41
2022-10-22T19:21:06.721Z,101324.50
2022-10-22T19:23:35.815Z,101318.31
2022-10-22T19:26:05.491Z,101316.50
2022-10-22T19:28:33.522Z,101320.13
2022-10-22T19:31:01.165Z,101317.53
2022-10-22T19:33:29.006Z,101321.16
2022-10-22T19:35:56.664Z,101314.94
2022-10-22T19:38:29.567Z,101308.69
2022-10-22T19:40:58.668Z,101305.13
2022-10-22T19:43:26.485Z,101302.53
2022-10-22T19:45:54.174Z,101298.91
2022-10-22T19:48:21.839Z,101302.56
2022-10-22T19:50:49.525Z,101309.78
2022-10-22T19:53:17.214Z,101306.22
2022-10-22T19:55:45.241Z,101305.28
2022-10-22T19:58:15.739Z,101297.25
2022-10-22T20:00:43.457Z,101296.38
2022-10-22T20:03:15.189Z,101302.66
2022-10-22T20:05:43.644Z,101302.63
2022-10-22T20:08:12.322Z,101308.03
2022-10-22T20:10:40.255Z,101306.25
2022-10-22T20:13:07.947Z,101317.03
2022-10-22T20:15:37.358Z,101314.34
2022-10-22T20:18:05.363Z,101318.81
2022-10-22T20:20:33.016Z,101315.28
2022-10-22T20:23:00.810Z,101313.53
2022-10-22T20:25:28.456Z,101310.84
2022-10-22T20:27:56.116Z,101307.28
2022-10-22T20:30:23.827Z,101305.53
2022-10-22T20:32:52.861Z,101308.19
2022-10-22T20:35:20.505Z,101311.78
2022-10-22T20:37:48.149Z,101308.22
2022-10-22T20:40:15.843Z,101321.66
2022-10-22T20:42:44.005Z,101318.06
2022-10-22T20:45:11.998Z,101324.34
2022-10-22T20:47:51.231Z,101318.09
2022-10-22T20:50:21.800Z,101310.97
2022-10-22T20:52:49.479Z,101313.66
2022-10-22T20:55:17.531Z,101317.31
2022-10-22T20:57:45.395Z,101312.84
2022-10-22T21:00:14.221Z,101312.84
2022-10-22T21:02:41.986Z,101308.38
2022-10-22T21:05:10.368Z,101309.28
2022-10-22T21:07:39.660Z,101312.91
2022-10-22T21:10:08.526Z,101312.03
2022-10-22T21:12:36.297Z,101310.28
2022-10-22T21:15:07.783Z,101311.19
2022-10-22T21:17:38.021Z,101312.06
2022-10-22T21:20:06.693Z,101310.28
2022-10-22T21:22:34.465Z,101321.97
2022-10-22T21:25:04.009Z,101311.28
2022-10-22T21:27:31.768Z,101314.03
2022-10-22T21:29:59.504Z,101312.22
2022-10-22T21:32:28.403Z,101311.31
2022-10-22T21:34:56.224Z,101317.59
2022-10-22T21:37:24.164Z,101324.78
2022-10-22T21:39:51.848Z,101319.47
2022-10-22T21:42:20.966Z,101315.94
2022-10-22T21:44:51.423Z,101316.81
2022-10-22T21:47:19.106Z,101314.13
2022-10-22T21:49:46.849Z,101312.34
2022-10-22T21:52:14.548Z,101322.28
2022-10-22T21:54:42.197Z,101321.34
2022-10-22T21:57:09.829Z,101326.69
2022-10-22T21:59:39.144Z,101326.69
2022-10-22T22:02:06.843Z,101332.97
2022-10-22T22:04:34.608Z,101322.25
2022-10-22T22:07:02.266Z,101318.69
2022-10-22T22:09:29.992Z,101315.13
2022-10-22T22:11:57.660Z,101325.88
2022-10-22T22:14:25.309Z,101314.25
2022-10-22T22:16:54.359Z,101310.69
2022-10-22T22:19:22.017Z,101305.28
2022-10-22T22:21:52.292Z,101304.47
2022-10-22T22:24:19.986Z,101305.38
2022-10-22T22:26:47.674Z,101297.34
2022-10-22T22:29:15.339Z,101302.75
2022-10-22T22:31:43.522Z,101306.31
2022-10-22T22:34:14.798Z,101302.75
2022-10-22T22:36:45.369Z,101294.69
2022-10-22T22:39:15.199Z,101300.03
2022-10-22T22:41:43.794Z,101299.13
2022-10-22T22:44:11.760Z,101301.84
2022-10-22T22:46:39.869Z,101300.09
2022-10-22T22:49:07.585Z,101299.16
2022-10-22T22:51:36.879Z,101303.63
2022-10-22T22:54:04.831Z,101292.91
2022-10-22T22:56:34.939Z,101292.03
2022-10-22T22:59:03.404Z,101292.94
2022-10-22T23:01:33.092Z,101302.78
2022-10-22T23:04:03.238Z,101301.00
2022-10-22T23:06:33.153Z,101295.63
2022-10-22T23:09:02.325Z,101298.31
2022-10-22T23:11:30.091Z,101285.78
2022-10-22T23:13:59.833Z,101283.09
2022-10-22T23:16:29.596Z,101286.69
2022-10-22T23:18:57.909Z,101276.88
2022-10-22T23:21:28.992Z,101274.22
2022-10-22T23:23:59.389Z,101284.06
2022-10-22T23:26:30.802Z,101276.91
2022-10-22T23:29:01.317Z,101281.41
2022-10-22T23:31:29.000Z,101282.31
2022-10-22T23:33:56.677Z,101285.91
2022-10-22T23:36:24.392Z,101271.56
2022-10-22T23:38:52.322Z,101267.13
2022-10-22T23:41:19.923Z,101273.34
2022-10-22T23:43:48.933Z,101261.72
2022-10-22T23:46:16.543Z,101257.25
2022-10-22T23:48:44.194Z,101263.50
2022-10-22T23:51:13.680Z,101269.78
2022-10-22T23:53:42.559Z,101263.50
2022-10-22T23:56:14.238Z,101267.13
2022-10-22T23:58:42.790Z,101253.75
